createdAt,value
2019-06-07T00:01:11.340Z,99.90
2019-06-07T00:03:40.080Z,99.90
2019-06-07T00:06:13.068Z,99.90
2019-06-07T00:08:39.004Z,99.90
2019-06-07T00:11:10.332Z,99.90
2019-06-07T00:13:37.919Z,99.90
2019-06-07T00:16:06.569Z,99.90
2019-06-07T00:18:35.135Z,99.90
2019-06-07T00:21:03.758Z,99.90
2019-06-07T00:23:32.319Z,99.90
2019-06-07T00:26:00.870Z,99.90
2019-06-07T00:28:29.409Z,99.90
2019-06-07T00:30:58.081Z,99.90
2019-06-07T00:33:26.593Z,99.90
2019-06-07T00:35:55.177Z,99.90
2019-06-07T00:38:23.790Z,99.90
2019-06-07T00:40:52.461Z,99.90
2019-06-07T00:43:27.960Z,99.90
2019-06-07T00:45:52.085Z,99.90
2019-06-07T00:48:31.783Z,99.90
2019-06-07T00:50:50.829Z,99.90
2019-06-07T00:53:28.808Z,99.90
2019-06-07T00:55:49.789Z,99.90
2019-06-07T00:58:21.833Z,99.90
2019-06-07T01:00:48.796Z,99.90
2019-06-07T01:03:21.982Z,99.90
2019-06-07T01:05:47.720Z,99.90
2019-06-07T01:08:19.361Z,99.90
2019-06-07T01:10:53.776Z,99.90
2019-06-07T01:13:18.838Z,99.90
2019-06-07T01:15:47.264Z,99.90
2019-06-07T01:20:46.130Z,99.90
2019-06-07T01:23:57.919Z,99.90
2019-06-07T01:25:45.042Z,99.90
2019-06-07T01:28:13.587Z,99.90
2019-06-07T01:30:42.210Z,99.90
2019-06-07T01:33:10.778Z,99.90
2019-06-07T01:35:39.401Z,99.90
2019-06-07T01:38:08.150Z,99.90
2019-06-07T01:40:36.736Z,99.90
2019-06-07T01:43:05.456Z,99.90
2019-06-07T01:45:34.152Z,99.90
2019-06-07T01:48:02.745Z,99.90
2019-06-07T01:50:31.438Z,99.90
2019-06-07T01:53:00.040Z,99.90
2019-06-07T01:55:32.235Z,99.90
2019-06-07T01:57:58.909Z,99.90
2019-06-07T02:00:32.010Z,99.90
2019-06-07T02:02:57.839Z,99.90
2019-06-07T02:05:31.009Z,99.90
2019-06-07T02:07:57.521Z,99.90
2019-06-07T02:10:28.444Z,99.90
2019-06-07T02:12:56.352Z,99.90
2019-06-07T02:15:27.639Z,99.90
2019-06-07T02:17:55.338Z,99.90
2019-06-07T02:20:27.837Z,99.90
2019-06-07T02:22:55.712Z,99.90
2019-06-07T02:25:49.546Z,99.90
2019-06-07T02:28:11.124Z,99.90
2019-06-07T02:30:42.209Z,99.90
2019-06-07T02:32:55.088Z,99.90
2019-06-07T02:35:27.144Z,99.90
2019-06-07T02:37:53.984Z,99.90
2019-06-07T02:40:24.374Z,99.90
2019-06-07T02:42:52.932Z,99.90
2019-06-07T02:45:24.221Z,99.90
2019-06-07T02:47:51.842Z,99.90
2019-06-07T02:50:20.621Z,99.90
2019-06-07T02:52:49.267Z,99.90
2019-06-07T02:55:17.952Z,99.90
2019-06-07T02:57:46.522Z,99.90
2019-06-07T03:01:00.075Z,99.90
2019-06-07T03:03:05.244Z,99.90
2019-06-07T03:05:36.366Z,99.90
2019-06-07T03:08:04.403Z,99.90
2019-06-07T03:10:36.920Z,99.90
2019-06-07T03:13:07.335Z,99.90
2019-06-07T03:15:47.720Z,99.90
2019-06-07T03:18:28.646Z,99.90
2019-06-07T03:21:05.530Z,99.90
2019-06-07T03:23:31.940Z,99.90
2019-06-07T03:26:00.018Z,99.90
2019-06-07T03:28:35.568Z,99.90
2019-06-07T03:31:04.656Z,99.90
2019-06-07T03:33:41.450Z,99.90
2019-06-07T03:36:22.880Z,99.90
2019-06-07T03:38:37.615Z,99.90
2019-06-07T03:41:06.389Z,99.90
2019-06-07T03:43:38.179Z,99.90
2019-06-07T03:46:05.276Z,99.90
2019-06-07T03:48:36.388Z,99.90
2019-06-07T03:51:06.754Z,99.90
2019-06-07T03:53:36.535Z,99.90
2019-06-07T03:56:04.823Z,99.90
2019-06-07T03:58:45.743Z,99.90
2019-06-07T04:01:03.626Z,99.90
2019-06-07T04:03:42.078Z,99.90
2019-06-07T04:06:02.800Z,99.90
2019-06-07T04:08:33.534Z,99.90
2019-06-07T04:11:01.514Z,99.90
2019-06-07T04:13:34.174Z,99.90
2019-06-07T04:16:00.325Z,99.90
2019-06-07T04:18:30.278Z,99.90
2019-06-07T04:20:59.125Z,99.90
2019-06-07T04:23:31.266Z,99.90
2019-06-07T04:25:57.948Z,99.90
2019-06-07T04:29:16.516Z,99.90
2019-06-07T04:30:56.764Z,99.90
2019-06-07T04:33:26.308Z,99.90
2019-06-07T04:35:56.564Z,99.90
2019-06-07T04:38:25.792Z,99.90
2019-06-07T04:40:55.007Z,99.90
2019-06-07T04:43:25.413Z,99.90
2019-06-07T04:45:55.507Z,99.90
2019-06-07T04:48:27.147Z,99.90
2019-06-07T04:50:56.611Z,99.90
2019-06-07T04:53:25.188Z,99.90
2019-06-07T04:55:53.826Z,99.90
2019-06-07T04:58:22.440Z,99.90
2019-06-07T05:00:56.411Z,99.90
2019-06-07T05:03:21.353Z,99.90
2019-06-07T05:05:49.993Z,99.90
2019-06-07T05:08:28.042Z,99.90
2019-06-07T05:10:48.909Z,99.90
2019-06-07T05:13:17.578Z,99.90
2019-06-07T05:15:46.096Z,99.90
2019-06-07T05:18:14.711Z,99.90
2019-06-07T05:20:44.447Z,99.90
2019-06-07T05:23:59.506Z,99.90
2019-06-07T05:25:44.792Z,99.90
2019-06-07T05:28:13.664Z,99.90
2019-06-07T05:31:04.336Z,99.90
2019-06-07T05:33:13.093Z,99.90
2019-06-07T05:35:43.555Z,99.90
2019-06-07T05:38:12.055Z,99.90
2019-06-07T05:40:48.081Z,99.90
2019-06-07T05:43:21.459Z,99.90
2019-06-07T05:45:49.990Z,99.90
2019-06-07T05:48:18.635Z,99.90
2019-06-07T05:50:56.165Z,99.90
2019-06-07T05:53:17.832Z,99.90
2019-06-07T05:55:47.686Z,99.90
2019-06-07T05:58:16.486Z,99.90
2019-06-07T06:00:47.549Z,99.90
2019-06-07T06:03:15.459Z,99.90
2019-06-07T06:05:53.816Z,99.90
2019-06-07T06:08:14.281Z,99.90
2019-06-07T06:10:46.859Z,99.90
2019-06-07T06:13:13.098Z,99.90
2019-06-07T06:15:56.305Z,99.90
2019-06-07T06:18:12.583Z,99.90
2019-06-07T06:21:04.909Z,99.90
2019-06-07T06:23:11.456Z,99.90
2019-06-07T06:25:44.160Z,99.90
2019-06-07T06:28:12.660Z,99.90
2019-06-07T06:30:41.258Z,99.90
2019-06-07T06:33:30.617Z,99.90
2019-06-07T06:35:47.461Z,99.90
2019-06-07T06:38:13.872Z,99.90
2019-06-07T06:40:46.283Z,99.90
2019-06-07T06:43:12.704Z,99.90
2019-06-07T06:45:42.934Z,99.90
2019-06-07T06:48:11.444Z,99.90
2019-06-07T06:50:41.089Z,99.90
2019-06-07T06:53:09.820Z,99.90
2019-06-07T06:55:39.095Z,99.90
2019-06-07T06:58:07.859Z,99.90
2019-06-07T07:00:53.580Z,99.90
2019-06-07T07:05:49.752Z,99.90
2019-06-07T07:08:16.596Z,99.90
2019-06-07T07:10:48.649Z,99.90
2019-06-07T07:13:16.669Z,99.90
2019-06-07T07:15:47.489Z,99.90
2019-06-07T07:18:15.554Z,99.90
2019-06-07T07:20:47.206Z,99.90
2019-06-07T07:23:14.456Z,99.90
2019-06-07T07:25:46.038Z,99.90
2019-06-07T07:28:13.501Z,99.90
2019-06-07T07:30:44.968Z,99.90
2019-06-07T07:33:13.778Z,99.90
2019-06-07T07:36:03.913Z,99.90
2019-06-07T07:38:12.842Z,99.90
2019-06-07T07:41:01.721Z,99.90
2019-06-07T07:43:11.772Z,99.90
2019-06-07T07:45:41.561Z,99.90
2019-06-07T07:48:17.751Z,99.90
2019-06-07T07:50:41.139Z,99.90
2019-06-07T07:53:09.791Z,99.90
2019-06-07T07:55:38.399Z,99.90
2019-06-07T07:58:07.038Z,99.90
2019-06-07T08:00:52.423Z,99.90
2019-06-07T08:03:07.054Z,99.90
2019-06-07T08:05:43.133Z,99.90
2019-06-07T08:08:07.878Z,99.90
2019-06-07T08:10:36.478Z,99.90
2019-06-07T08:13:23.666Z,99.90
2019-06-07T08:15:35.392Z,99.90
2019-06-07T08:18:04.813Z,99.90
2019-06-07T08:20:33.565Z,99.90
2019-06-07T08:23:02.188Z,99.90
2019-06-07T08:25:30.840Z,99.90
2019-06-07T08:27:59.490Z,99.90
2019-06-07T08:30:49.865Z,99.90
2019-06-07T08:33:24.214Z,99.90
2019-06-07T08:36:03.724Z,99.90
2019-06-07T08:38:25.236Z,99.90
2019-06-07T08:40:31.418Z,99.90
2019-06-07T08:43:15.056Z,99.90
2019-06-07T08:45:30.379Z,99.90
2019-06-07T08:48:05.356Z,99.90
2019-06-07T08:50:29.340Z,99.90
2019-06-07T08:53:10.627Z,99.90
2019-06-07T08:55:28.159Z,99.90
2019-06-07T08:58:02.335Z,99.90
2019-06-07T09:00:45.190Z,99.90
2019-06-07T09:02:58.898Z,99.90
2019-06-07T09:05:27.710Z,99.90
2019-06-07T09:08:21.129Z,99.90
2019-06-07T09:10:26.602Z,99.90
2019-06-07T09:13:00.332Z,99.90
2019-06-07T09:15:25.567Z,99.90
2019-06-07T09:18:34.809Z,99.90
2019-06-07T09:20:36.463Z,99.90
2019-06-07T09:22:59.078Z,99.90
2019-06-07T09:25:26.605Z,99.90
2019-06-07T09:28:00.584Z,99.90
2019-06-07T09:30:43.135Z,99.90
2019-06-07T09:33:12.491Z,99.90
2019-06-07T09:35:41.484Z,99.90
2019-06-07T09:38:23.423Z,99.90
2019-06-07T09:40:40.363Z,99.90
2019-06-07T09:45:39.416Z,99.90
2019-06-07T09:48:13.451Z,99.90
2019-06-07T09:50:38.295Z,99.90
2019-06-07T09:53:20.090Z,99.90
2019-06-07T09:55:37.111Z,99.90
2019-06-07T09:58:45.370Z,99.90
2019-06-07T10:00:41.382Z,99.90
2019-06-07T10:03:17.927Z,99.90
2019-06-07T10:05:36.724Z,99.90
2019-06-07T10:08:25.755Z,99.90
2019-06-07T10:10:35.822Z,99.90
2019-06-07T10:13:06.288Z,99.90
2019-06-07T10:15:34.931Z,99.90
2019-06-07T10:18:04.796Z,99.90
2019-06-07T10:20:33.627Z,99.90
2019-06-07T10:23:03.565Z,99.90
2019-06-07T10:25:32.311Z,99.90
2019-06-07T10:28:01.855Z,99.90
2019-06-07T10:30:30.537Z,99.90
2019-06-07T10:32:59.969Z,99.90
2019-06-07T10:35:28.965Z,99.90
2019-06-07T10:37:58.272Z,98.90
2019-06-07T10:40:27.003Z,99.90
2019-06-07T10:42:55.625Z,99.90
2019-06-07T10:45:24.262Z,99.90
2019-06-07T10:47:52.783Z,97.80
2019-06-07T10:50:22.507Z,99.90
2019-06-07T10:52:51.044Z,99.90
2019-06-07T10:55:19.687Z,99.70
2019-06-07T10:57:48.228Z,99.90
2019-06-07T11:00:17.204Z,99.90
2019-06-07T11:02:45.779Z,99.90
2019-06-07T11:05:14.605Z,98.50
2019-06-07T11:07:43.214Z,99.90
2019-06-07T11:10:18.839Z,99.90
2019-06-07T11:12:42.187Z,98.50
2019-06-07T11:15:12.820Z,99.90
2019-06-07T11:17:41.438Z,98.80
2019-06-07T11:20:12.405Z,98.80
2019-06-07T11:22:41.136Z,97.10
2019-06-07T11:25:11.155Z,96.70
2019-06-07T11:27:40.480Z,97.10
2019-06-07T11:30:10.493Z,96.90
2019-06-07T11:32:39.479Z,95.60
2019-06-07T11:35:08.903Z,97.60
2019-06-07T11:37:37.440Z,95.40
2019-06-07T11:40:27.948Z,97.50
2019-06-07T11:42:38.745Z,95.60
2019-06-07T11:45:07.997Z,96.50
2019-06-07T11:47:37.528Z,96.80
2019-06-07T11:50:09.630Z,97.90
2019-06-07T11:52:38.848Z,95.50
2019-06-07T11:55:09.190Z,95.60
2019-06-07T11:57:38.008Z,97.90
2019-06-07T12:00:11.579Z,96.10
2019-06-07T12:02:40.732Z,96.10
2019-06-07T12:05:13.670Z,96.20
2019-06-07T12:07:40.086Z,98.00
2019-06-07T12:10:10.795Z,96.40
2019-06-07T12:12:39.588Z,92.80
2019-06-07T12:15:10.988Z,95.80
2019-06-07T12:17:39.691Z,95.80
2019-06-07T12:20:10.797Z,94.00
2019-06-07T12:22:38.988Z,94.90
2019-06-07T12:25:08.194Z,95.20
2019-06-07T12:27:36.733Z,92.80
2019-06-07T12:30:16.363Z,93.20
2019-06-07T12:32:39.753Z,93.40
2019-06-07T12:35:08.956Z,93.50
2019-06-07T12:37:44.361Z,94.00
2019-06-07T12:40:09.717Z,94.00
2019-06-07T12:42:38.415Z,92.00
2019-06-07T12:45:08.591Z,93.20
2019-06-07T12:47:37.326Z,92.40
2019-06-07T12:50:07.873Z,91.50
2019-06-07T12:52:36.493Z,91.70
2019-06-07T12:55:08.298Z,92.10
2019-06-07T12:57:36.976Z,91.30
2019-06-07T13:00:14.162Z,92.10
2019-06-07T13:02:42.990Z,91.10
2019-06-07T13:05:13.110Z,90.10
2019-06-07T13:07:41.749Z,91.30
2019-06-07T13:10:11.315Z,90.60
2019-06-07T13:12:43.173Z,90.50
2019-06-07T13:15:10.693Z,90.10
2019-06-07T13:17:39.289Z,90.60
2019-06-07T13:20:08.690Z,89.40
2019-06-07T13:22:37.467Z,91.00
2019-06-07T13:25:08.147Z,90.80
2019-06-07T13:27:36.824Z,89.60
2019-06-07T13:30:10.865Z,90.00
2019-06-07T13:32:39.397Z,84.50
2019-06-07T13:35:08.586Z,86.50
2019-06-07T13:37:37.194Z,89.50
2019-06-07T13:40:06.879Z,89.00
2019-06-07T13:42:35.520Z,88.00
2019-06-07T13:45:06.388Z,85.50
2019-06-07T13:47:35.068Z,84.40
2019-06-07T13:50:08.598Z,84.50
2019-06-07T13:52:37.608Z,84.80
2019-06-07T13:55:07.506Z,85.20
2019-06-07T13:57:36.130Z,86.20
2019-06-07T14:00:12.133Z,86.00
2019-06-07T14:02:41.032Z,86.50
2019-06-07T14:05:09.917Z,83.50
2019-06-07T14:07:38.473Z,82.20
2019-06-07T14:10:11.457Z,84.10
2019-06-07T14:12:38.265Z,85.90
2019-06-07T14:15:08.075Z,84.50
2019-06-07T14:17:36.651Z,84.00
2019-06-07T14:20:07.122Z,84.00
2019-06-07T14:22:35.733Z,82.90
2019-06-07T14:25:07.116Z,83.80
2019-06-07T14:27:35.694Z,82.10
2019-06-07T14:30:07.078Z,85.80
2019-06-07T14:32:35.677Z,83.30
2019-06-07T14:35:06.473Z,83.30
2019-06-07T14:37:35.166Z,83.70
2019-06-07T14:40:05.922Z,80.70
2019-06-07T14:42:34.861Z,83.90
2019-06-07T14:45:06.133Z,85.50
2019-06-07T14:47:35.071Z,86.30
2019-06-07T14:50:04.772Z,88.00
2019-06-07T14:52:34.979Z,84.60
2019-06-07T14:55:05.320Z,82.90
2019-06-07T14:57:34.238Z,83.30
2019-06-07T15:00:11.475Z,83.10
2019-06-07T15:02:38.398Z,85.20
2019-06-07T15:05:08.115Z,83.50
2019-06-07T15:07:36.811Z,82.00
2019-06-07T15:10:08.807Z,82.20
2019-06-07T15:12:37.821Z,84.30
2019-06-07T15:15:07.305Z,86.40
2019-06-07T15:17:35.867Z,82.80
2019-06-07T15:20:09.360Z,82.10
2019-06-07T15:22:38.800Z,82.80
2019-06-07T15:25:09.175Z,85.40
2019-06-07T15:27:38.283Z,84.80
2019-06-07T15:30:11.561Z,82.70
2019-06-07T15:32:40.637Z,80.30
2019-06-07T15:35:09.811Z,78.90
2019-06-07T15:37:39.263Z,80.20
2019-06-07T15:40:08.975Z,81.00
2019-06-07T15:42:48.103Z,80.30
2019-06-07T15:45:08.435Z,80.30
2019-06-07T15:47:38.331Z,81.70
2019-06-07T15:50:08.054Z,81.20
2019-06-07T15:52:38.356Z,81.20
2019-06-07T15:55:08.753Z,79.50
2019-06-07T15:57:37.436Z,79.90
2019-06-07T16:00:11.157Z,79.80
2019-06-07T16:02:39.823Z,78.90
2019-06-07T16:05:09.497Z,80.20
2019-06-07T16:07:38.371Z,77.40
2019-06-07T16:10:09.019Z,76.60
2019-06-07T16:12:38.762Z,76.90
2019-06-07T16:15:09.730Z,75.20
2019-06-07T16:17:39.212Z,75.70
2019-06-07T16:20:08.100Z,75.70
2019-06-07T16:22:37.611Z,75.50
2019-06-07T16:25:07.200Z,76.30
2019-06-07T16:27:36.750Z,75.10
2019-06-07T16:30:10.422Z,75.20
2019-06-07T16:32:41.848Z,76.00
2019-06-07T16:35:11.096Z,76.10
2019-06-07T16:37:40.822Z,74.00
2019-06-07T16:40:12.033Z,73.80
2019-06-07T16:42:40.870Z,72.70
2019-06-07T16:45:11.414Z,72.20
2019-06-07T16:47:42.740Z,71.50
2019-06-07T16:50:11.538Z,73.60
2019-06-07T16:52:41.559Z,75.00
2019-06-07T16:55:11.518Z,73.70
2019-06-07T16:57:40.988Z,71.90
2019-06-07T17:00:11.207Z,72.90
2019-06-07T17:02:40.185Z,72.50
2019-06-07T17:05:10.643Z,72.90
2019-06-07T17:07:40.219Z,71.80
2019-06-07T17:10:09.826Z,73.20
2019-06-07T17:12:38.686Z,73.30
2019-06-07T17:15:13.087Z,74.40
2019-06-07T17:17:42.948Z,75.40
2019-06-07T17:20:12.991Z,76.10
2019-06-07T17:22:43.493Z,77.50
2019-06-07T17:25:12.371Z,78.40
2019-06-07T17:27:42.046Z,78.80
2019-06-07T17:30:12.181Z,79.80
2019-06-07T17:32:53.180Z,80.00
2019-06-07T17:35:11.318Z,81.10
2019-06-07T17:37:41.634Z,82.00
2019-06-07T17:40:10.881Z,82.00
2019-06-07T17:42:40.636Z,81.80
2019-06-07T17:45:10.561Z,82.30
2019-06-07T17:47:39.126Z,83.80
2019-06-07T17:50:08.820Z,82.70
2019-06-07T17:52:38.341Z,83.70
2019-06-07T17:55:08.261Z,85.70
2019-06-07T17:57:36.956Z,87.00
2019-06-07T18:02:42.530Z,86.20
2019-06-07T18:05:11.596Z,86.10
2019-06-07T18:07:41.073Z,87.80
2019-06-07T18:10:11.980Z,88.70
2019-06-07T18:12:40.595Z,88.80
2019-06-07T18:15:10.787Z,87.70
2019-06-07T18:17:39.393Z,88.20
2019-06-07T18:20:10.895Z,90.30
2019-06-07T18:22:39.527Z,90.30
2019-06-07T18:25:09.308Z,90.30
2019-06-07T18:27:37.942Z,90.40
2019-06-07T18:30:11.681Z,91.50
2019-06-07T18:32:40.302Z,91.80
2019-06-07T18:35:08.983Z,91.80
2019-06-07T18:37:37.551Z,93.20
2019-06-07T18:40:07.243Z,93.10
2019-06-07T18:42:37.357Z,93.20
2019-06-07T18:45:09.234Z,93.10
2019-06-07T18:47:37.880Z,93.10
2019-06-07T18:50:09.452Z,92.80
2019-06-07T18:52:39.739Z,92.70
2019-06-07T18:55:10.028Z,93.70
2019-06-07T18:57:38.684Z,93.70
2019-06-07T19:00:09.555Z,94.00
2019-06-07T19:02:38.483Z,95.20
2019-06-07T19:05:08.381Z,95.00
2019-06-07T19:07:37.004Z,96.60
2019-06-07T19:10:07.986Z,97.10
2019-06-07T19:12:36.589Z,97.00
2019-06-07T19:15:09.337Z,97.00
2019-06-07T19:17:38.048Z,97.40
2019-06-07T19:20:08.027Z,97.40
2019-06-07T19:22:36.698Z,97.30
2019-06-07T19:25:08.411Z,97.60
2019-06-07T19:27:37.087Z,97.70
2019-06-07T19:30:07.291Z,98.10
2019-06-07T19:32:35.831Z,98.50
2019-06-07T19:35:06.039Z,98.70
2019-06-07T19:37:34.575Z,98.70
2019-06-07T19:40:04.179Z,99.20
2019-06-07T19:42:32.777Z,99.80
2019-06-07T19:45:28.286Z,99.80
2019-06-07T19:47:31.868Z,99.40
2019-06-07T19:50:00.950Z,98.50
2019-06-07T19:52:29.712Z,98.80
2019-06-07T19:54:59.651Z,98.40
2019-06-07T19:57:28.470Z,98.30
2019-06-07T19:59:57.489Z,98.10
2019-06-07T20:02:26.150Z,97.60
2019-06-07T20:04:58.188Z,96.90
2019-06-07T20:07:24.953Z,97.00
2019-06-07T20:09:54.448Z,94.70
2019-06-07T20:12:23.272Z,93.10
2019-06-07T20:14:55.361Z,93.40
2019-06-07T20:17:22.026Z,92.50
2019-06-07T20:19:50.592Z,92.10
2019-06-07T20:22:19.132Z,91.00
2019-06-07T20:24:47.698Z,91.10
2019-06-07T20:27:16.304Z,90.30
2019-06-07T20:29:44.931Z,90.10
2019-06-07T20:32:13.471Z,90.10
2019-06-07T20:34:44.610Z,89.00
2019-06-07T20:37:12.407Z,88.80
2019-06-07T20:39:40.915Z,88.20
2019-06-07T20:42:09.460Z,88.90
2019-06-07T20:44:38.083Z,88.30
2019-06-07T20:47:06.684Z,87.90
2019-06-07T20:49:35.328Z,87.30
2019-06-07T20:52:04.831Z,87.60
2019-06-07T20:54:33.531Z,88.30
2019-06-07T20:57:02.636Z,88.10
2019-06-07T20:59:31.363Z,88.10
2019-06-07T21:02:00.821Z,87.70
2019-06-07T21:04:29.440Z,87.00
2019-06-07T21:06:59.183Z,86.80
2019-06-07T21:09:28.560Z,86.90
2019-06-07T21:11:57.201Z,87.10
2019-06-07T21:14:25.746Z,87.70
2019-06-07T21:16:54.387Z,87.40
2019-06-07T21:19:22.926Z,88.30
2019-06-07T21:21:51.512Z,88.40
2019-06-07T21:24:20.095Z,88.50
2019-06-07T21:26:48.666Z,89.10
2019-06-07T21:29:17.252Z,86.70
2019-06-07T21:31:45.902Z,82.80
2019-06-07T21:34:14.435Z,83.10
2019-06-07T21:36:42.996Z,82.60
2019-06-07T21:39:12.402Z,83.40
2019-06-07T21:41:41.140Z,83.50
2019-06-07T21:44:10.375Z,84.60
2019-06-07T21:46:38.950Z,84.80
2019-06-07T21:49:08.503Z,85.60
2019-06-07T21:51:37.159Z,85.80
2019-06-07T21:54:09.246Z,86.00
2019-06-07T21:56:36.023Z,86.90
2019-06-07T21:59:05.087Z,87.20
2019-06-07T22:01:33.913Z,87.60
2019-06-07T22:04:03.495Z,88.10
2019-06-07T22:06:32.262Z,89.20
2019-06-07T22:09:00.830Z,89.20
2019-06-07T22:11:29.379Z,89.70
2019-06-07T22:13:58.093Z,90.40
2019-06-07T22:16:29.503Z,90.70
2019-06-07T22:18:56.925Z,90.80
2019-06-07T22:21:25.567Z,91.10
2019-06-07T22:23:54.107Z,91.40
2019-06-07T22:26:22.740Z,91.60
2019-06-07T22:28:51.353Z,92.00
2019-06-07T22:31:19.883Z,92.20
2019-06-07T22:33:48.455Z,92.30
2019-06-07T22:36:17.012Z,92.30
2019-06-07T22:38:45.561Z,92.50
2019-06-07T22:41:14.104Z,93.00
2019-06-07T22:43:42.705Z,93.40
2019-06-07T22:46:11.303Z,93.20
2019-06-07T22:48:39.941Z,93.50
2019-06-07T22:51:11.301Z,93.00
2019-06-07T22:53:42.946Z,93.20
2019-06-07T22:56:16.103Z,93.10
2019-06-07T22:58:44.719Z,93.90
2019-06-07T23:01:14.458Z,93.90
2019-06-07T23:03:43.089Z,94.30
2019-06-07T23:06:12.573Z,94.10
2019-06-07T23:08:41.191Z,94.40
2019-06-07T23:11:11.089Z,95.10
2019-06-07T23:13:39.754Z,95.30
2019-06-07T23:16:09.377Z,95.20
2019-06-07T23:18:38.011Z,95.00
2019-06-07T23:21:06.579Z,95.00
2019-06-07T23:23:35.191Z,95.00
2019-06-07T23:26:03.806Z,95.00
2019-06-07T23:28:32.458Z,95.00
2019-06-07T23:31:01.064Z,95.10
2019-06-07T23:33:29.616Z,94.60
2019-06-07T23:35:58.294Z,94.50
2019-06-07T23:38:26.859Z,94.10
2019-06-07T23:40:55.400Z,94.40
2019-06-07T23:43:24.032Z,94.40
2019-06-07T23:45:52.682Z,94.40
2019-06-07T23:48:21.635Z,94.40
2019-06-07T23:50:50.422Z,94.30
2019-06-07T23:53:19.935Z,94.20
2019-06-07T23:55:48.627Z,93.40
2019-06-07T23:58:18.580Z,93.10
